sensor_id;sensor_type;location;lat;lon;timestamp;P1;durP1;ratioP1;P2;durP2;ratioP2
13408;SDS011;6775;49.574;11.170;2023-09-18T00:00:54;6.13;;;4.67;;
13408;SDS011;6775;49.574;11.170;2023-09-18T00:03:23;5.67;;;5.07;;
13408;SDS011;6775;49.574;11.170;2023-09-18T00:05:53;5.37;;;4.87;;
13408;SDS011;6775;49.574;11.170;2023-09-18T00:08:21;4.87;;;4.47;;
13408;SDS011;6775;49.574;11.170;2023-09-18T00:10:49;5.67;;;5.10;;
13408;SDS011;6775;49.574;11.170;2023-09-18T00:13:20;5.40;;;4.90;;
13408;SDS011;6775;49.574;11.170;2023-09-18T00:15:49;5.50;;;5.00;;
13408;SDS011;6775;49.574;11.170;2023-09-18T00:18:21;5.27;;;4.83;;
13408;SDS011;6775;49.574;11.170;2023-09-18T00:20:50;5.60;;;5.10;;
13408;SDS011;6775;49.574;11.170;2023-09-18T00:23:20;7.63;;;5.07;;
13408;SDS011;6775;49.574;11.170;2023-09-18T00:25:48;5.27;;;4.77;;
13408;SDS011;6775;49.574;11.170;2023-09-18T00:28:16;5.80;;;5.20;;
13408;SDS011;6775;49.574;11.170;2023-09-18T00:30:46;5.40;;;4.90;;
13408;SDS011;6775;49.574;11.170;2023-09-18T00:33:17;5.47;;;4.97;;
13408;SDS011;6775;49.574;11.170;2023-09-18T00:35:46;5.73;;;4.77;;
13408;SDS011;6775;49.574;11.170;2023-09-18T00:38:17;5.60;;;5.10;;
13408;SDS011;6775;49.574;11.170;2023-09-18T00:40:45;5.43;;;4.93;;
13408;SDS011;6775;49.574;11.170;2023-09-18T00:43:13;5.30;;;4.67;;
13408;SDS011;6775;49.574;11.170;2023-09-18T00:45:42;4.93;;;4.27;;
13408;SDS011;6775;49.574;11.170;2023-09-18T00:48:13;5.63;;;4.27;;
13408;SDS011;6775;49.574;11.170;2023-09-18T00:50:43;5.37;;;4.50;;
13408;SDS011;6775;49.574;11.170;2023-09-18T00:53:13;5.30;;;4.17;;
13408;SDS011;6775;49.574;11.170;2023-09-18T00:55:47;4.73;;;4.27;;
13408;SDS011;6775;49.574;11.170;2023-09-18T00:58:17;4.73;;;4.33;;
13408;SDS011;6775;49.574;11.170;2023-09-18T01:00:45;4.83;;;4.40;;
13408;SDS011;6775;49.574;11.170;2023-09-18T01:03:17;4.77;;;4.33;;
13408;SDS011;6775;49.574;11.170;2023-09-18T01:05:47;5.57;;;4.40;;
13408;SDS011;6775;49.574;11.170;2023-09-18T01:08:15;4.80;;;4.33;;
13408;SDS011;6775;49.574;11.170;2023-09-18T01:10:46;4.13;;;3.83;;
13408;SDS011;6775;49.574;11.170;2023-09-18T01:13:27;4.50;;;4.07;;
13408;SDS011;6775;49.574;11.170;2023-09-18T01:16:05;4.60;;;3.90;;
13408;SDS011;6775;49.574;11.170;2023-09-18T01:18:48;4.47;;;4.00;;
13408;SDS011;6775;49.574;11.170;2023-09-18T01:21:18;4.33;;;4.03;;
13408;SDS011;6775;49.574;11.170;2023-09-18T01:23:48;4.00;;;3.60;;
13408;SDS011;6775;49.574;11.170;2023-09-18T01:26:17;4.93;;;4.13;;
13408;SDS011;6775;49.574;11.170;2023-09-18T01:28:45;4.27;;;3.50;;
13408;SDS011;6775;49.574;11.170;2023-09-18T01:31:13;4.70;;;4.30;;
13408;SDS011;6775;49.574;11.170;2023-09-18T01:33:43;3.93;;;3.53;;
13408;SDS011;6775;49.574;11.170;2023-09-18T01:36:14;4.77;;;4.10;;
13408;SDS011;6775;49.574;11.170;2023-09-18T01:38:44;3.80;;;3.50;;
13408;SDS011;6775;49.574;11.170;2023-09-18T01:41:14;3.90;;;3.53;;
13408;SDS011;6775;49.574;11.170;2023-09-18T01:43:43;3.80;;;3.50;;
13408;SDS011;6775;49.574;11.170;2023-09-18T01:46:12;3.70;;;3.40;;
13408;SDS011;6775;49.574;11.170;2023-09-18T01:48:45;4.30;;;3.90;;
13408;SDS011;6775;49.574;11.170;2023-09-18T01:51:14;4.00;;;3.70;;
13408;SDS011;6775;49.574;11.170;2023-09-18T01:53:43;4.57;;;3.80;;
13408;SDS011;6775;49.574;11.170;2023-09-18T01:56:11;3.83;;;3.53;;
13408;SDS011;6775;49.574;11.170;2023-09-18T01:58:40;4.73;;;3.73;;
13408;SDS011;6775;49.574;11.170;2023-09-18T02:01:09;4.50;;;4.10;;
13408;SDS011;6775;49.574;11.170;2023-09-18T02:03:38;4.07;;;3.77;;
13408;SDS011;6775;49.574;11.170;2023-09-18T02:06:28;3.40;;;3.10;;
13408;SDS011;6775;49.574;11.170;2023-09-18T02:08:57;4.33;;;3.93;;
13408;SDS011;6775;49.574;11.170;2023-09-18T02:11:25;3.97;;;3.67;;
13408;SDS011;6775;49.574;11.170;2023-09-18T02:13:56;3.80;;;3.50;;
13408;SDS011;6775;49.574;11.170;2023-09-18T02:16:25;4.13;;;3.73;;
13408;SDS011;6775;49.574;11.170;2023-09-18T02:18:54;3.77;;;3.47;;
13408;SDS011;6775;49.574;11.170;2023-09-18T02:21:23;5.77;;;4.37;;
13408;SDS011;6775;49.574;11.170;2023-09-18T02:23:52;5.00;;;4.40;;
13408;SDS011;6775;49.574;11.170;2023-09-18T02:26:21;4.77;;;4.37;;
13408;SDS011;6775;49.574;11.170;2023-09-18T02:28:51;4.40;;;4.00;;
13408;SDS011;6775;49.574;11.170;2023-09-18T02:31:22;4.40;;;4.00;;
13408;SDS011;6775;49.574;11.170;2023-09-18T02:33:50;4.63;;;4.23;;
13408;SDS011;6775;49.574;11.170;2023-09-18T02:36:18;5.97;;;4.07;;
13408;SDS011;6775;49.574;11.170;2023-09-18T02:38:46;3.70;;;3.40;;
13408;SDS011;6775;49.574;11.170;2023-09-18T02:41:14;4.23;;;3.93;;
13408;SDS011;6775;49.574;11.170;2023-09-18T02:43:43;3.93;;;3.63;;
13408;SDS011;6775;49.574;11.170;2023-09-18T02:46:11;3.90;;;3.50;;
13408;SDS011;6775;49.574;11.170;2023-09-18T02:48:40;4.70;;;4.20;;
13408;SDS011;6775;49.574;11.170;2023-09-18T02:51:09;4.77;;;3.93;;
13408;SDS011;6775;49.574;11.170;2023-09-18T02:53:37;4.90;;;4.40;;
13408;SDS011;6775;49.574;11.170;2023-09-18T02:56:05;3.63;;;3.33;;
13408;SDS011;6775;49.574;11.170;2023-09-18T02:58:33;4.20;;;3.80;;
13408;SDS011;6775;49.574;11.170;2023-09-18T03:01:02;3.80;;;3.50;;
13408;SDS011;6775;49.574;11.170;2023-09-18T03:03:31;4.53;;;4.13;;
13408;SDS011;6775;49.574;11.170;2023-09-18T03:06:02;5.00;;;4.13;;
13408;SDS011;6775;49.574;11.170;2023-09-18T03:08:33;4.17;;;3.83;;
13408;SDS011;6775;49.574;11.170;2023-09-18T03:11:01;4.57;;;3.70;;
13408;SDS011;6775;49.574;11.170;2023-09-18T03:13:30;4.83;;;4.37;;
13408;SDS011;6775;49.574;11.170;2023-09-18T03:15:59;4.33;;;3.87;;
13408;SDS011;6775;49.574;11.170;2023-09-18T03:18:27;4.47;;;4.13;;
13408;SDS011;6775;49.574;11.170;2023-09-18T03:20:55;4.83;;;4.43;;
13408;SDS011;6775;49.574;11.170;2023-09-18T03:23:24;6.23;;;4.73;;
13408;SDS011;6775;49.574;11.170;2023-09-18T03:25:53;4.60;;;4.20;;
13408;SDS011;6775;49.574;11.170;2023-09-18T03:28:21;6.90;;;4.80;;
13408;SDS011;6775;49.574;11.170;2023-09-18T03:30:49;5.50;;;5.00;;
13408;SDS011;6775;49.574;11.170;2023-09-18T03:33:18;6.00;;;4.40;;
13408;SDS011;6775;49.574;11.170;2023-09-18T03:35:46;5.60;;;5.07;;
13408;SDS011;6775;49.574;11.170;2023-09-18T03:38:16;4.93;;;4.53;;
13408;SDS011;6775;49.574;11.170;2023-09-18T03:40:46;5.47;;;4.93;;
13408;SDS011;6775;49.574;11.170;2023-09-18T03:43:14;4.87;;;4.47;;
13408;SDS011;6775;49.574;11.170;2023-09-18T03:45:43;4.57;;;4.17;;
13408;SDS011;6775;49.574;11.170;2023-09-18T03:48:11;5.20;;;4.70;;
13408;SDS011;6775;49.574;11.170;2023-09-18T03:50:40;5.87;;;5.03;;
13408;SDS011;6775;49.574;11.170;2023-09-18T03:53:09;5.60;;;5.10;;
13408;SDS011;6775;49.574;11.170;2023-09-18T03:55:37;6.20;;;5.03;;
13408;SDS011;6775;49.574;11.170;2023-09-18T03:58:07;5.53;;;4.50;;
13408;SDS011;6775;49.574;11.170;2023-09-18T04:00:36;4.93;;;4.37;;
13408;SDS011;6775;49.574;11.170;2023-09-18T04:03:04;4.37;;;4.03;;
13408;SDS011;6775;49.574;11.170;2023-09-18T04:05:32;4.93;;;4.53;;
13408;SDS011;6775;49.574;11.170;2023-09-18T04:08:01;4.77;;;4.33;;
13408;SDS011;6775;49.574;11.170;2023-09-18T04:10:29;4.57;;;4.17;;
13408;SDS011;6775;49.574;11.170;2023-09-18T04:12:59;5.50;;;4.00;;
13408;SDS011;6775;49.574;11.170;2023-09-18T04:15:29;4.43;;;3.90;;
13408;SDS011;6775;49.574;11.170;2023-09-18T04:17:57;4.97;;;4.53;;
13408;SDS011;6775;49.574;11.170;2023-09-18T04:20:26;5.07;;;4.57;;
13408;SDS011;6775;49.574;11.170;2023-09-18T04:25:51;4.80;;;4.40;;
13408;SDS011;6775;49.574;11.170;2023-09-18T04:28:21;8.20;;;5.20;;
13408;SDS011;6775;49.574;11.170;2023-09-18T04:30:51;5.30;;;4.77;;
13408;SDS011;6775;49.574;11.170;2023-09-18T04:33:19;6.87;;;5.00;;
13408;SDS011;6775;49.574;11.170;2023-09-18T04:35:49;6.67;;;5.13;;
13408;SDS011;6775;49.574;11.170;2023-09-18T04:38:17;5.47;;;4.83;;
13408;SDS011;6775;49.574;11.170;2023-09-18T04:40:46;5.00;;;4.50;;
13408;SDS011;6775;49.574;11.170;2023-09-18T04:43:14;4.70;;;4.30;;
13408;SDS011;6775;49.574;11.170;2023-09-18T04:45:43;5.67;;;4.50;;
13408;SDS011;6775;49.574;11.170;2023-09-18T04:48:13;5.60;;;5.10;;
13408;SDS011;6775;49.574;11.170;2023-09-18T04:50:42;5.53;;;5.03;;
13408;SDS011;6775;49.574;11.170;2023-09-18T04:53:10;4.87;;;4.47;;
13408;SDS011;6775;49.574;11.170;2023-09-18T04:55:41;5.47;;;4.47;;
13408;SDS011;6775;49.574;11.170;2023-09-18T04:58:09;5.87;;;5.30;;
13408;SDS011;6775;49.574;11.170;2023-09-18T05:00:37;6.43;;;5.50;;
13408;SDS011;6775;49.574;11.170;2023-09-18T05:03:05;5.80;;;5.30;;
13408;SDS011;6775;49.574;11.170;2023-09-18T05:05:36;6.63;;;5.17;;
13408;SDS011;6775;49.574;11.170;2023-09-18T05:08:05;5.10;;;4.70;;
13408;SDS011;6775;49.574;11.170;2023-09-18T05:10:34;4.87;;;4.47;;
13408;SDS011;6775;49.574;11.170;2023-09-18T05:13:04;5.00;;;4.60;;
13408;SDS011;6775;49.574;11.170;2023-09-18T05:15:33;5.63;;;5.13;;
13408;SDS011;6775;49.574;11.170;2023-09-18T05:18:01;4.83;;;4.33;;
13408;SDS011;6775;49.574;11.170;2023-09-18T05:20:30;5.47;;;4.97;;
13408;SDS011;6775;49.574;11.170;2023-09-18T05:23:00;5.23;;;4.73;;
13408;SDS011;6775;49.574;11.170;2023-09-18T05:25:29;5.20;;;4.70;;
13408;SDS011;6775;49.574;11.170;2023-09-18T05:27:59;5.10;;;4.60;;
13408;SDS011;6775;49.574;11.170;2023-09-18T05:30:31;6.20;;;5.60;;
13408;SDS011;6775;49.574;11.170;2023-09-18T05:33:02;7.13;;;5.53;;
13408;SDS011;6775;49.574;11.170;2023-09-18T05:35:32;6.20;;;5.60;;
13408;SDS011;6775;49.574;11.170;2023-09-18T05:38:02;5.47;;;4.97;;
13408;SDS011;6775;49.574;11.170;2023-09-18T05:40:31;5.23;;;4.73;;
13408;SDS011;6775;49.574;11.170;2023-09-18T05:42:59;5.20;;;4.70;;
13408;SDS011;6775;49.574;11.170;2023-09-18T05:45:28;5.93;;;4.70;;
13408;SDS011;6775;49.574;11.170;2023-09-18T05:47:57;5.47;;;4.80;;
13408;SDS011;6775;49.574;11.170;2023-09-18T05:50:31;5.23;;;4.17;;
13408;SDS011;6775;49.574;11.170;2023-09-18T05:53:03;4.57;;;4.17;;
13408;SDS011;6775;49.574;11.170;2023-09-18T05:55:32;6.10;;;4.40;;
13408;SDS011;6775;49.574;11.170;2023-09-18T05:58:01;4.50;;;3.97;;
13408;SDS011;6775;49.574;11.170;2023-09-18T06:00:31;5.07;;;4.30;;
13408;SDS011;6775;49.574;11.170;2023-09-18T06:03:00;5.23;;;4.73;;
13408;SDS011;6775;49.574;11.170;2023-09-18T06:05:28;4.93;;;4.40;;
13408;SDS011;6775;49.574;11.170;2023-09-18T06:07:58;8.10;;;4.50;;
13408;SDS011;6775;49.574;11.170;2023-09-18T06:10:28;4.63;;;4.23;;
13408;SDS011;6775;49.574;11.170;2023-09-18T06:12:56;4.47;;;4.07;;
13408;SDS011;6775;49.574;11.170;2023-09-18T06:15:24;5.50;;;4.87;;
13408;SDS011;6775;49.574;11.170;2023-09-18T06:17:53;5.53;;;4.80;;
13408;SDS011;6775;49.574;11.170;2023-09-18T06:20:21;4.87;;;4.20;;
13408;SDS011;6775;49.574;11.170;2023-09-18T06:22:49;4.20;;;3.90;;
13408;SDS011;6775;49.574;11.170;2023-09-18T06:25:18;4.87;;;4.47;;
13408;SDS011;6775;49.574;11.170;2023-09-18T06:27:48;3.67;;;3.37;;
13408;SDS011;6775;49.574;11.170;2023-09-18T06:30:16;4.07;;;3.70;;
13408;SDS011;6775;49.574;11.170;2023-09-18T06:32:44;4.00;;;3.70;;
13408;SDS011;6775;49.574;11.170;2023-09-18T06:35:12;4.10;;;3.77;;
13408;SDS011;6775;49.574;11.170;2023-09-18T06:37:40;4.20;;;3.80;;
13408;SDS011;6775;49.574;11.170;2023-09-18T06:40:09;4.03;;;3.73;;
13408;SDS011;6775;49.574;11.170;2023-09-18T06:42:37;4.70;;;4.30;;
13408;SDS011;6775;49.574;11.170;2023-09-18T06:45:07;4.53;;;4.10;;
13408;SDS011;6775;49.574;11.170;2023-09-18T06:47:36;4.77;;;4.30;;
13408;SDS011;6775;49.574;11.170;2023-09-18T06:50:07;4.00;;;3.70;;
13408;SDS011;6775;49.574;11.170;2023-09-18T06:52:38;4.00;;;3.70;;
13408;SDS011;6775;49.574;11.170;2023-09-18T06:55:07;4.67;;;3.83;;
13408;SDS011;6775;49.574;11.170;2023-09-18T06:57:36;4.33;;;3.93;;
13408;SDS011;6775;49.574;11.170;2023-09-18T07:00:05;3.93;;;3.53;;
13408;SDS011;6775;49.574;11.170;2023-09-18T07:02:36;4.70;;;4.30;;
13408;SDS011;6775;49.574;11.170;2023-09-18T07:05:05;5.90;;;4.70;;
13408;SDS011;6775;49.574;11.170;2023-09-18T07:07:33;4.67;;;4.27;;
13408;SDS011;6775;49.574;11.170;2023-09-18T07:10:02;4.73;;;4.33;;
13408;SDS011;6775;49.574;11.170;2023-09-18T07:12:31;5.57;;;4.53;;
13408;SDS011;6775;49.574;11.170;2023-09-18T07:15:00;4.40;;;4.00;;
13408;SDS011;6775;49.574;11.170;2023-09-18T07:17:32;4.00;;;3.70;;
13408;SDS011;6775;49.574;11.170;2023-09-18T07:20:02;3.73;;;3.43;;
13408;SDS011;6775;49.574;11.170;2023-09-18T07:22:36;3.57;;;3.27;;
13408;SDS011;6775;49.574;11.170;2023-09-18T07:25:05;4.43;;;4.07;;
13408;SDS011;6775;49.574;11.170;2023-09-18T07:27:34;5.03;;;4.63;;
13408;SDS011;6775;49.574;11.170;2023-09-18T07:30:05;5.07;;;4.17;;
13408;SDS011;6775;49.574;11.170;2023-09-18T07:32:36;5.17;;;4.57;;
13408;SDS011;6775;49.574;11.170;2023-09-18T07:35:06;5.30;;;4.50;;
13408;SDS011;6775;49.574;11.170;2023-09-18T07:37:35;4.47;;;4.10;;
13408;SDS011;6775;49.574;11.170;2023-09-18T07:40:04;4.20;;;3.90;;
13408;SDS011;6775;49.574;11.170;2023-09-18T07:42:33;3.90;;;3.60;;
13408;SDS011;6775;49.574;11.170;2023-09-18T07:45:01;5.87;;;4.20;;
13408;SDS011;6775;49.574;11.170;2023-09-18T07:47:30;4.37;;;3.73;;
13408;SDS011;6775;49.574;11.170;2023-09-18T07:50:00;4.07;;;3.67;;
13408;SDS011;6775;49.574;11.170;2023-09-18T07:52:28;4.37;;;3.97;;
13408;SDS011;6775;49.574;11.170;2023-09-18T07:54:58;4.30;;;3.90;;
13408;SDS011;6775;49.574;11.170;2023-09-18T07:57:26;3.70;;;3.40;;
13408;SDS011;6775;49.574;11.170;2023-09-18T07:59:56;4.23;;;3.90;;
13408;SDS011;6775;49.574;11.170;2023-09-18T08:02:25;4.53;;;4.13;;
13408;SDS011;6775;49.574;11.170;2023-09-18T08:04:55;4.40;;;3.50;;
13408;SDS011;6775;49.574;11.170;2023-09-18T08:07:24;3.93;;;3.53;;
13408;SDS011;6775;49.574;11.170;2023-09-18T08:09:54;3.60;;;3.30;;
13408;SDS011;6775;49.574;11.170;2023-09-18T08:12:22;3.90;;;3.50;;
13408;SDS011;6775;49.574;11.170;2023-09-18T08:14:51;4.83;;;3.80;;
13408;SDS011;6775;49.574;11.170;2023-09-18T08:17:19;4.23;;;3.80;;
13408;SDS011;6775;49.574;11.170;2023-09-18T08:19:50;4.27;;;3.87;;
13408;SDS011;6775;49.574;11.170;2023-09-18T08:22:19;5.57;;;4.00;;
13408;SDS011;6775;49.574;11.170;2023-09-18T08:24:49;4.43;;;3.40;;
13408;SDS011;6775;49.574;11.170;2023-09-18T08:27:19;3.90;;;3.50;;
13408;SDS011;6775;49.574;11.170;2023-09-18T08:29:47;4.13;;;3.80;;
13408;SDS011;6775;49.574;11.170;2023-09-18T08:32:15;3.90;;;3.50;;
13408;SDS011;6775;49.574;11.170;2023-09-18T08:34:47;3.67;;;3.37;;
13408;SDS011;6775;49.574;11.170;2023-09-18T08:37:15;4.03;;;3.73;;
13408;SDS011;6775;49.574;11.170;2023-09-18T08:39:43;3.53;;;3.23;;
13408;SDS011;6775;49.574;11.170;2023-09-18T08:42:13;3.60;;;3.30;;
13408;SDS011;6775;49.574;11.170;2023-09-18T08:44:44;3.97;;;3.17;;
13408;SDS011;6775;49.574;11.170;2023-09-18T08:47:18;4.10;;;3.10;;
13408;SDS011;6775;49.574;11.170;2023-09-18T08:49:47;6.00;;;3.20;;
13408;SDS011;6775;49.574;11.170;2023-09-18T08:52:19;4.60;;;3.30;;
13408;SDS011;6775;49.574;11.170;2023-09-18T08:54:48;4.17;;;3.07;;
13408;SDS011;6775;49.574;11.170;2023-09-18T08:57:20;3.80;;;3.30;;
13408;SDS011;6775;49.574;11.170;2023-09-18T08:59:49;5.43;;;3.60;;
13408;SDS011;6775;49.574;11.170;2023-09-18T09:02:21;5.33;;;3.37;;
13408;SDS011;6775;49.574;11.170;2023-09-18T09:04:49;4.63;;;3.10;;
13408;SDS011;6775;49.574;11.170;2023-09-18T09:07:18;5.17;;;2.90;;
13408;SDS011;6775;49.574;11.170;2023-09-18T09:09:46;7.37;;;3.53;;
13408;SDS011;6775;49.574;11.170;2023-09-18T09:12:14;6.80;;;3.30;;
13408;SDS011;6775;49.574;11.170;2023-09-18T09:14:47;3.90;;;3.10;;
13408;SDS011;6775;49.574;11.170;2023-09-18T09:17:31;4.23;;;3.13;;
13408;SDS011;6775;49.574;11.170;2023-09-18T09:20:07;4.63;;;3.47;;
13408;SDS011;6775;49.574;11.170;2023-09-18T09:22:37;4.73;;;3.00;;
13408;SDS011;6775;49.574;11.170;2023-09-18T09:25:21;4.80;;;3.03;;
13408;SDS011;6775;49.574;11.170;2023-09-18T09:27:54;4.07;;;2.53;;
13408;SDS011;6775;49.574;11.170;2023-09-18T09:30:25;2.63;;;2.00;;
13408;SDS011;6775;49.574;11.170;2023-09-18T09:32:55;3.30;;;2.60;;
13408;SDS011;6775;49.574;11.170;2023-09-18T09:35:26;2.90;;;2.17;;
13408;SDS011;6775;49.574;11.170;2023-09-18T09:37:59;3.53;;;2.10;;
13408;SDS011;6775;49.574;11.170;2023-09-18T09:40:29;3.07;;;2.30;;
13408;SDS011;6775;49.574;11.170;2023-09-18T09:42:57;3.03;;;2.30;;
13408;SDS011;6775;49.574;11.170;2023-09-18T09:45:30;3.60;;;2.10;;
13408;SDS011;6775;49.574;11.170;2023-09-18T09:48:02;5.43;;;2.47;;
13408;SDS011;6775;49.574;11.170;2023-09-18T09:50:33;5.27;;;2.50;;
13408;SDS011;6775;49.574;11.170;2023-09-18T09:53:13;4.27;;;2.40;;
13408;SDS011;6775;49.574;11.170;2023-09-18T09:55:42;5.87;;;2.57;;
13408;SDS011;6775;49.574;11.170;2023-09-18T09:58:11;4.40;;;2.27;;
13408;SDS011;6775;49.574;11.170;2023-09-18T10:00:43;3.97;;;2.67;;
13408;SDS011;6775;49.574;11.170;2023-09-18T10:03:16;5.10;;;2.67;;
13408;SDS011;6775;49.574;11.170;2023-09-18T10:05:47;5.33;;;2.97;;
13408;SDS011;6775;49.574;11.170;2023-09-18T10:08:22;5.23;;;2.73;;
13408;SDS011;6775;49.574;11.170;2023-09-18T10:10:54;4.03;;;2.60;;
13408;SDS011;6775;49.574;11.170;2023-09-18T10:13:31;3.83;;;2.60;;
13408;SDS011;6775;49.574;11.170;2023-09-18T10:16:09;5.50;;;2.30;;
13408;SDS011;6775;49.574;11.170;2023-09-18T10:18:42;5.50;;;2.20;;
13408;SDS011;6775;49.574;11.170;2023-09-18T10:21:25;4.67;;;2.23;;
13408;SDS011;6775;49.574;11.170;2023-09-18T10:24:03;3.67;;;2.33;;
13408;SDS011;6775;49.574;11.170;2023-09-18T10:26:44;3.77;;;1.90;;
13408;SDS011;6775;49.574;11.170;2023-09-18T10:29:21;4.90;;;2.20;;
13408;SDS011;6775;49.574;11.170;2023-09-18T10:31:52;4.03;;;2.27;;
13408;SDS011;6775;49.574;11.170;2023-09-18T10:34:22;4.30;;;2.27;;
13408;SDS011;6775;49.574;11.170;2023-09-18T10:36:52;3.20;;;2.20;;
13408;SDS011;6775;49.574;11.170;2023-09-18T10:39:22;3.93;;;2.20;;
13408;SDS011;6775;49.574;11.170;2023-09-18T10:41:54;3.67;;;1.97;;
13408;SDS011;6775;49.574;11.170;2023-09-18T10:44:23;2.47;;;1.80;;
13408;SDS011;6775;49.574;11.170;2023-09-18T10:46:53;2.93;;;2.00;;
13408;SDS011;6775;49.574;11.170;2023-09-18T10:49:22;5.43;;;2.33;;
13408;SDS011;6775;49.574;11.170;2023-09-18T10:51:52;3.07;;;2.10;;
13408;SDS011;6775;49.574;11.170;2023-09-18T10:54:25;3.93;;;2.13;;
13408;SDS011;6775;49.574;11.170;2023-09-18T10:56:55;3.67;;;1.97;;
13408;SDS011;6775;49.574;11.170;2023-09-18T10:59:25;2.80;;;2.10;;
13408;SDS011;6775;49.574;11.170;2023-09-18T11:01:58;2.80;;;1.90;;
13408;SDS011;6775;49.574;11.170;2023-09-18T11:04:32;4.23;;;2.03;;
13408;SDS011;6775;49.574;11.170;2023-09-18T11:07:03;2.00;;;1.47;;
13408;SDS011;6775;49.574;11.170;2023-09-18T11:09:39;1.93;;;1.50;;
13408;SDS011;6775;49.574;11.170;2023-09-18T11:12:10;1.90;;;1.33;;
13408;SDS011;6775;49.574;11.170;2023-09-18T11:14:42;1.50;;;1.30;;
13408;SDS011;6775;49.574;11.170;2023-09-18T11:17:30;1.87;;;1.20;;
13408;SDS011;6775;49.574;11.170;2023-09-18T11:20:05;1.40;;;1.10;;
13408;SDS011;6775;49.574;11.170;2023-09-18T11:22:48;1.90;;;1.00;;
13408;SDS011;6775;49.574;11.170;2023-09-18T11:28:14;1.70;;;0.90;;
13408;SDS011;6775;49.574;11.170;2023-09-18T11:30:50;3.63;;;1.30;;
13408;SDS011;6775;49.574;11.170;2023-09-18T11:33:33;3.07;;;1.20;;
13408;SDS011;6775;49.574;11.170;2023-09-18T11:36:04;2.07;;;0.90;;
13408;SDS011;6775;49.574;11.170;2023-09-18T11:38:35;3.57;;;1.10;;
13408;SDS011;6775;49.574;11.170;2023-09-18T11:41:24;4.23;;;1.37;;
13408;SDS011;6775;49.574;11.170;2023-09-18T11:47:03;3.60;;;1.20;;
13408;SDS011;6775;49.574;11.170;2023-09-18T11:49:41;1.10;;;0.70;;
13408;SDS011;6775;49.574;11.170;2023-09-18T11:52:17;1.63;;;0.93;;
13408;SDS011;6775;49.574;11.170;2023-09-18T11:54:46;2.03;;;0.90;;
13408;SDS011;6775;49.574;11.170;2023-09-18T11:57:18;2.00;;;0.90;;
13408;SDS011;6775;49.574;11.170;2023-09-18T11:59:47;1.47;;;0.80;;
13408;SDS011;6775;49.574;11.170;2023-09-18T12:02:25;1.73;;;0.70;;
13408;SDS011;6775;49.574;11.170;2023-09-18T12:05:09;2.30;;;1.00;;
13408;SDS011;6775;49.574;11.170;2023-09-18T12:07:38;2.37;;;1.10;;
13408;SDS011;6775;49.574;11.170;2023-09-18T12:10:11;3.33;;;1.20;;
13408;SDS011;6775;49.574;11.170;2023-09-18T12:12:43;1.80;;;0.87;;
13408;SDS011;6775;49.574;11.170;2023-09-18T12:15:12;3.17;;;0.87;;
13408;SDS011;6775;49.574;11.170;2023-09-18T12:17:42;1.10;;;0.80;;
13408;SDS011;6775;49.574;11.170;2023-09-18T12:20:15;1.97;;;0.87;;
13408;SDS011;6775;49.574;11.170;2023-09-18T12:22:47;1.83;;;0.70;;
13408;SDS011;6775;49.574;11.170;2023-09-18T12:25:17;1.57;;;1.00;;
13408;SDS011;6775;49.574;11.170;2023-09-18T12:27:45;1.93;;;1.00;;
13408;SDS011;6775;49.574;11.170;2023-09-18T12:30:18;0.90;;;0.80;;
13408;SDS011;6775;49.574;11.170;2023-09-18T12:32:50;2.37;;;0.90;;
13408;SDS011;6775;49.574;11.170;2023-09-18T12:35:21;1.97;;;1.10;;
13408;SDS011;6775;49.574;11.170;2023-09-18T12:37:55;1.10;;;0.83;;
13408;SDS011;6775;49.574;11.170;2023-09-18T12:40:25;4.30;;;1.00;;
13408;SDS011;6775;49.574;11.170;2023-09-18T12:42:55;2.73;;;1.33;;
13408;SDS011;6775;49.574;11.170;2023-09-18T12:45:26;4.13;;;1.30;;
13408;SDS011;6775;49.574;11.170;2023-09-18T12:47:57;3.03;;;1.10;;
13408;SDS011;6775;49.574;11.170;2023-09-18T12:50:27;2.17;;;1.13;;
13408;SDS011;6775;49.574;11.170;2023-09-18T12:53:06;2.30;;;1.10;;
13408;SDS011;6775;49.574;11.170;2023-09-18T12:55:38;1.53;;;1.20;;
13408;SDS011;6775;49.574;11.170;2023-09-18T12:58:10;1.63;;;0.97;;
13408;SDS011;6775;49.574;11.170;2023-09-18T13:00:44;1.23;;;0.77;;
13408;SDS011;6775;49.574;11.170;2023-09-18T13:03:15;4.60;;;1.43;;
13408;SDS011;6775;49.574;11.170;2023-09-18T13:05:46;2.63;;;1.30;;
13408;SDS011;6775;49.574;11.170;2023-09-18T13:08:15;1.10;;;1.00;;
13408;SDS011;6775;49.574;11.170;2023-09-18T13:10:49;2.53;;;1.20;;
13408;SDS011;6775;49.574;11.170;2023-09-18T13:13:19;0.93;;;0.90;;
13408;SDS011;6775;49.574;11.170;2023-09-18T13:15:49;1.23;;;1.07;;
13408;SDS011;6775;49.574;11.170;2023-09-18T13:18:21;2.70;;;1.30;;
13408;SDS011;6775;49.574;11.170;2023-09-18T13:20:52;2.47;;;1.40;;
13408;SDS011;6775;49.574;11.170;2023-09-18T13:23:27;4.13;;;1.20;;
13408;SDS011;6775;49.574;11.170;2023-09-18T13:26:00;2.27;;;1.60;;
13408;SDS011;6775;49.574;11.170;2023-09-18T13:28:30;2.87;;;1.30;;
13408;SDS011;6775;49.574;11.170;2023-09-18T13:31:02;3.93;;;1.50;;
13408;SDS011;6775;49.574;11.170;2023-09-18T13:33:33;3.53;;;1.17;;
13408;SDS011;6775;49.574;11.170;2023-09-18T13:36:07;3.13;;;1.57;;
13408;SDS011;6775;49.574;11.170;2023-09-18T13:38:35;1.43;;;1.10;;
13408;SDS011;6775;49.574;11.170;2023-09-18T13:41:03;2.43;;;1.23;;
13408;SDS011;6775;49.574;11.170;2023-09-18T13:43:32;3.43;;;1.30;;
13408;SDS011;6775;49.574;11.170;2023-09-18T13:46:02;2.57;;;1.10;;
13408;SDS011;6775;49.574;11.170;2023-09-18T13:48:31;2.93;;;1.00;;
13408;SDS011;6775;49.574;11.170;2023-09-18T13:51:00;4.23;;;1.10;;
13408;SDS011;6775;49.574;11.170;2023-09-18T13:53:31;3.47;;;1.20;;
13408;SDS011;6775;49.574;11.170;2023-09-18T13:56:01;2.63;;;1.13;;
13408;SDS011;6775;49.574;11.170;2023-09-18T13:58:30;2.10;;;1.10;;
13408;SDS011;6775;49.574;11.170;2023-09-18T14:00:58;1.37;;;1.00;;
13408;SDS011;6775;49.574;11.170;2023-09-18T14:03:26;2.10;;;1.00;;
13408;SDS011;6775;49.574;11.170;2023-09-18T14:05:57;2.03;;;0.93;;
13408;SDS011;6775;49.574;11.170;2023-09-18T14:08:26;3.33;;;1.10;;
13408;SDS011;6775;49.574;11.170;2023-09-18T14:10:55;2.23;;;1.10;;
13408;SDS011;6775;49.574;11.170;2023-09-18T14:13:23;2.77;;;0.90;;
13408;SDS011;6775;49.574;11.170;2023-09-18T14:15:51;1.10;;;0.90;;
13408;SDS011;6775;49.574;11.170;2023-09-18T14:18:20;2.27;;;0.90;;
13408;SDS011;6775;49.574;11.170;2023-09-18T14:20:49;6.67;;;4.37;;
13408;SDS011;6775;49.574;11.170;2023-09-18T14:23:17;1.30;;;0.83;;
13408;SDS011;6775;49.574;11.170;2023-09-18T14:25:45;1.70;;;1.20;;
13408;SDS011;6775;49.574;11.170;2023-09-18T14:28:15;4.03;;;1.30;;
13408;SDS011;6775;49.574;11.170;2023-09-18T14:30:43;2.80;;;0.80;;
13408;SDS011;6775;49.574;11.170;2023-09-18T14:33:11;3.00;;;1.07;;
13408;SDS011;6775;49.574;11.170;2023-09-18T14:35:41;6.00;;;2.10;;
13408;SDS011;6775;49.574;11.170;2023-09-18T14:38:09;4.63;;;2.07;;
13408;SDS011;6775;49.574;11.170;2023-09-18T14:40:40;3.37;;;1.43;;
13408;SDS011;6775;49.574;11.170;2023-09-18T14:43:09;1.53;;;0.93;;
13408;SDS011;6775;49.574;11.170;2023-09-18T14:45:39;3.30;;;1.13;;
13408;SDS011;6775;49.574;11.170;2023-09-18T14:48:07;2.57;;;1.27;;
13408;SDS011;6775;49.574;11.170;2023-09-18T14:50:35;3.27;;;1.10;;
13408;SDS011;6775;49.574;11.170;2023-09-18T14:53:04;2.10;;;0.90;;
13408;SDS011;6775;49.574;11.170;2023-09-18T14:55:33;2.93;;;1.50;;
13408;SDS011;6775;49.574;11.170;2023-09-18T14:58:02;0.70;;;0.63;;
13408;SDS011;6775;49.574;11.170;2023-09-18T15:00:31;1.67;;;0.60;;
13408;SDS011;6775;49.574;11.170;2023-09-18T15:03:03;1.97;;;1.20;;
13408;SDS011;6775;49.574;11.170;2023-09-18T15:05:32;5.03;;;1.03;;
13408;SDS011;6775;49.574;11.170;2023-09-18T15:08:00;1.63;;;1.00;;
13408;SDS011;6775;49.574;11.170;2023-09-18T15:10:28;2.50;;;1.00;;
13408;SDS011;6775;49.574;11.170;2023-09-18T15:12:56;2.27;;;1.10;;
13408;SDS011;6775;49.574;11.170;2023-09-18T15:15:24;1.23;;;0.90;;